Time;durP1;ratioP1;P1;durP2;ratioP2;P2;SDS_P1;SDS_P2;PMS_P1;PMS_P2;Temp;Humidity;BMP_temperature;BMP_pressure;BME280_temperature;BME280_humidity;BME280_pressure;Samples;Min_cycle;Max_cycle;Signal;HPM_P1;HPM_P2
2023/10/12 05:48:21;;;;;;;0.70;0.70;;;;;;;14.69;53.70;97875.69;5078899;27;20415;-67
2023/10/12 05:50:53;;;;;;;0.60;0.60;;;;;;;12.87;55.75;97725.75;5082788;28;20051;-64
2023/10/12 05:53:20;;;;;;;0.60;0.60;;;;;;;12.44;57.89;97760.25;5101917;28;20056;-69
2023/10/12 05:55:47;;;;;;;0.60;0.60;;;;;;;12.70;60.23;97874.38;5095522;28;20428;-63
2023/10/12 05:58:15;;;;;;;0.60;0.60;;;;;;;12.27;61.94;97894.00;5093041;28;20052;-65
2023/10/12 06:00:45;;;;;;;0.60;0.60;;;;;;;11.40;63.02;97764.91;5088122;27;20747;-66
2023/10/12 06:03:15;;;;;;;0.50;0.50;;;;;;;11.63;64.89;97832.53;5077260;28;20060;-61
2023/10/12 06:05:44;;;;;;;0.50;0.50;;;;;;;11.95;65.13;97886.88;5092972;28;20503;-68
2023/10/12 06:08:12;;;;;;;0.60;0.60;;;;;;;12.01;65.63;97885.44;5095922;28;20074;-66
2023/10/12 06:10:42;;;;;;;0.60;0.60;;;;;;;10.22;65.33;97582.09;5079164;28;20130;-70
2023/10/12 06:13:09;;;;;;;0.60;0.60;;;;;;;12.05;65.48;97900.22;5096310;28;20510;-62
2023/10/12 06:15:42;;;;;;;0.50;0.50;;;;;;;12.04;66.42;97881.94;5095293;28;20073;-63
2023/10/12 06:18:21;;;;;;;0.60;0.60;;;;;;;12.25;66.23;97873.31;5093648;28;20429;-64
2023/10/12 06:21:06;;;;;;;0.60;0.60;;;;;;;11.67;66.21;97769.59;5091257;28;20079;-64
2023/10/12 06:23:39;;;;;;;0.57;0.57;;;;;;;12.25;65.86;97840.78;5087243;28;20488;-63
2023/10/12 06:26:16;;;;;;;0.50;0.50;;;;;;;12.59;64.71;97867.78;5100195;28;20128;-64
2023/10/12 06:28:45;;;;;;;0.60;0.60;;;;;;;12.10;65.19;97817.44;5077595;28;20489;-65
2023/10/12 06:31:13;;;;;;;0.50;0.50;;;;;;;12.46;65.53;97823.78;5077691;28;20050;-66
2023/10/12 06:33:42;;;;;;;0.60;0.60;;;;;;;12.36;64.71;97758.47;5099114;28;20062;-71
2023/10/12 06:36:16;;;;;;;0.60;0.60;;;;;;;13.20;63.48;97865.09;5114485;28;20051;-62
2023/10/12 06:44:18;;;;;;;0.60;0.60;;;;;;;13.47;63.32;97862.09;5087971;28;20534;-63
2023/10/12 06:46:49;;;;;;;0.70;0.70;;;;;;;13.65;62.77;97859.63;5091066;27;20059;-68
2023/10/12 06:49:29;;;;;;;0.60;0.60;;;;;;;13.54;62.39;97826.03;5088887;28;20120;-63
2023/10/12 06:52:10;;;;;;;0.60;0.60;;;;;;;13.96;62.49;97853.81;5109699;28;20150;-65
2023/10/12 07:02:29;;;;;;;0.60;0.60;;;;;;;14.22;61.39;97772.22;5092946;28;20050;-63
2023/10/12 07:05:01;;;;;;;0.70;0.70;;;;;;;14.73;60.51;97854.22;5086142;28;20120;-65
2023/10/12 07:07:36;;;;;;;0.70;0.70;;;;;;;14.42;62.05;97848.97;5071895;28;20135;-65
2023/10/12 07:12:45;;;;;;;0.70;0.70;;;;;;;14.81;60.50;97845.56;5079236;28;20063;-64
2023/10/12 07:15:14;;;;;;;0.60;0.60;;;;;;;14.75;60.17;97790.47;5081156;28;20109;-66
2023/10/12 07:17:49;;;;;;;0.60;0.60;;;;;;;15.40;59.48;97844.72;5067484;28;20430;-65
2023/10/12 07:23:34;;;;;;;0.60;0.60;;;;;;;15.61;57.82;97833.78;5090870;28;20503;-62
2023/10/12 07:25:51;;;;;;;0.70;0.70;;;;;;;15.91;57.16;97831.69;5100406;28;20047;-68
2023/10/12 07:28:19;;;;;;;0.70;0.70;;;;;;;16.09;56.29;97843.78;5064923;28;20056;-67
2023/10/12 07:33:32;;;;;;;0.70;0.70;;;;;;;16.21;55.87;97846.31;5073635;28;20047;-65
2023/10/12 07:36:11;;;;;;;0.70;0.70;;;;;;;10.20;54.49;96847.25;5078237;28;20048;-66
2023/10/12 07:38:38;;;;;;;0.70;0.70;;;;;;;15.30;54.63;97649.97;5062691;28;20401;-67
2023/10/12 07:41:05;;;;;;;0.70;0.70;;;;;;;15.25;54.96;97669.88;5080596;28;20052;-63
2023/10/12 07:43:32;;;;;;;0.70;0.70;;;;;;;16.60;54.54;97833.41;5061056;28;20521;-68
2023/10/12 07:46:23;;;;;;;0.80;0.80;;;;;;;16.88;54.13;97812.38;5079681;28;20519;-64
2023/10/12 07:48:51;;;;;;;0.70;0.70;;;;;;;16.94;53.50;97806.03;5080781;28;20127;-67
2023/10/12 07:51:30;;;;;;;0.80;0.80;;;;;;;16.49;52.44;97701.09;5073569;28;20054;-62
2023/10/12 07:53:57;;;;;;;0.80;0.80;;;;;;;17.42;52.26;97815.00;5073320;28;20062;-66
2023/10/12 07:56:30;;;;;;;0.80;0.80;;;;;;;17.53;51.00;97793.44;5085021;28;20067;-63
2023/10/12 07:58:59;;;;;;;0.80;0.80;;;;;;;17.09;51.20;97723.69;5079859;28;20054;-62
2023/10/12 08:03:58;;;;;;;0.70;0.70;;;;;;;17.44;50.80;97739.75;5082655;28;20054;-63
2023/10/12 08:06:36;;;;;;;0.80;0.80;;;;;;;17.24;50.29;97685.31;5084601;28;20093;-58
2023/10/12 08:11:49;;;;;;;0.82;0.82;;;;;;;17.33;50.22;97696.91;5084380;28;20062;-59
2023/10/12 08:19:42;;;;;;;0.80;0.80;;;;;;;18.03;49.31;97724.97;5060888;28;20052;-61
2023/10/12 08:22:29;;;;;;;0.70;0.70;;;;;;;18.19;48.77;97718.94;5064028;28;20155;-60
2023/10/12 08:24:58;;;;;;;1.00;1.00;;;;;;;18.35;47.39;97706.09;5046041;28;20067;-63
2023/10/12 08:27:26;;;;;;;0.80;0.80;;;;;;;18.99;47.17;97786.06;5041664;28;20056;-62
2023/10/12 08:37:26;;;;;;;0.90;0.90;;;;;;;19.14;46.65;97769.97;5061798;28;20079;-59
2023/10/12 08:45:09;;;;;;;0.90;0.90;;;;;;;19.09;47.17;97768.38;5064687;28;20049;-63
2023/10/12 08:52:50;;;;;;;0.90;0.90;;;;;;;19.42;46.40;97714.44;5063478;28;20060;-65
2023/10/12 08:55:31;;;;;;;0.93;0.93;;;;;;;19.88;45.61;97747.00;5062502;28;20230;-60
2023/10/12 08:58:04;;;;;;;1.00;1.00;;;;;;;19.62;45.79;97751.22;5043320;28;21049;-65
2023/10/12 09:03:08;;;;;;;1.00;1.00;;;;;;;19.56;46.51;97741.63;5057024;28;20059;-62
2023/10/12 09:05:35;;;;;;;1.00;1.00;;;;;;;19.69;46.45;97734.31;5062837;28;20056;-66
2023/10/12 09:08:24;;;;;;;1.00;1.00;;;;;;;20.09;45.70;97741.22;5062754;28;20505;-61
2023/10/12 09:10:56;;;;;;;0.90;0.90;;;;;;;20.12;45.60;97740.38;5063695;28;20122;-61
2023/10/12 09:13:35;;;;;;;0.98;0.98;;;;;;;20.35;44.78;97734.94;5063373;28;20064;-66
2023/10/12 09:16:09;;;;;;;0.90;0.90;;;;;;;20.53;44.44;97727.13;5063660;28;20497;-60
2023/10/12 09:18:44;;;;;;;0.98;0.98;;;;;;;20.39;44.22;97690.69;5045457;28;20044;-66
2023/10/12 09:21:23;;;;;;;1.10;1.10;;;;;;;20.43;44.51;97722.38;5063233;28;20051;-67
2023/10/12 09:26:38;;;;;;;0.90;0.90;;;;;;;19.51;45.20;97582.66;5063698;28;20157;-61
2023/10/12 09:36:43;;;;;;;1.10;1.10;;;;;;;20.74;44.36;97707.13;5063603;28;20051;-67
2023/10/12 09:39:13;;;;;;;1.10;1.10;;;;;;;20.57;43.54;97637.78;5063357;28;20109;-61
2023/10/12 09:41:54;;;;;;;0.90;0.90;;;;;;;20.24;44.33;97638.56;5063262;28;20057;-67
2023/10/12 09:44:28;;;;;;;1.00;1.00;;;;;;;21.02;43.91;97673.78;5045493;28;20056;-66
2023/10/12 09:46:57;;;;;;;1.20;1.20;;;;;;;21.43;42.94;97696.16;5062749;28;20064;-65
2023/10/12 09:49:27;;;;;;;1.00;1.00;;;;;;;21.14;43.01;97621.72;5063317;28;20243;-60
2023/10/12 09:51:56;;;;;;;1.00;1.00;;;;;;;20.70;43.85;97681.06;5044773;28;20511;-60
2023/10/12 09:54:30;;;;;;;1.00;1.00;;;;;;;20.49;44.88;97650.34;5063331;28;20059;-61
2023/10/12 09:57:16;;;;;;;1.00;1.00;;;;;;;20.29;44.80;97643.75;5062197;28;20064;-61
2023/10/12 09:59:52;;;;;;;1.00;1.00;;;;;;;20.71;44.57;97666.56;5063346;28;20052;-66
2023/10/12 10:02:30;;;;;;;0.90;0.90;;;;;;;20.79;43.80;97659.59;5045162;28;20049;-60
2023/10/12 10:05:11;;;;;;;1.10;1.10;;;;;;;21.01;43.30;97639.63;5063371;28;20056;-60
2023/10/12 10:07:52;;;;;;;1.10;1.10;;;;;;;21.43;43.61;97656.69;5063157;28;20048;-61
2023/10/12 10:10:30;;;;;;;1.00;1.00;;;;;;;21.64;43.14;97645.06;5061555;28;20290;-61
2023/10/12 10:13:10;;;;;;;1.08;1.08;;;;;;;21.68;42.59;97645.00;5060815;28;20082;-60
2023/10/12 10:15:56;;;;;;;1.00;1.00;;;;;;;21.08;43.81;97639.50;5060963;28;20059;-65
2023/10/12 10:18:27;;;;;;;1.00;1.00;;;;;;;21.48;43.25;97636.44;5061197;28;20079;-60
2023/10/12 10:21:01;;;;;;;1.10;1.10;;;;;;;21.53;43.04;97582.41;5043297;28;20412;-67
2023/10/12 10:23:29;;;;;;;1.00;1.00;;;;;;;20.84;43.92;97568.22;5042926;28;20060;-61
2023/10/12 10:26:13;;;;;;;1.10;1.10;;;;;;;21.76;42.86;97630.38;5035062;28;20068;-67
2023/10/12 10:28:53;;;;;;;1.13;1.13;;;;;;;22.00;42.08;97612.19;5057513;28;20056;-61
2023/10/12 10:31:37;;;;;;;0.90;0.90;;;;;;;21.44;42.74;97601.91;5062648;28;20098;-63
2023/10/12 10:34:08;;;;;;;0.90;0.90;;;;;;;20.32;44.16;97548.03;5064713;28;20507;-66
2023/10/12 10:36:34;;;;;;;1.00;1.00;;;;;;;21.18;43.65;97594.28;5067095;28;20060;-61
2023/10/12 10:39:28;;;;;;;1.10;1.10;;;;;;;21.32;43.00;97543.31;5065704;28;20054;-65
2023/10/12 10:41:55;;;;;;;1.08;1.08;;;;;;;21.57;42.40;97594.44;5061430;28;20141;-67
2023/10/12 10:44:23;;;;;;;0.93;0.93;;;;;;;21.84;42.02;97581.06;5062972;28;20473;-64
2023/10/12 10:46:57;;;;;;;1.00;1.00;;;;;;;21.74;42.27;97548.19;5066542;28;20063;-62
2023/10/12 10:49:30;;;;;;;1.00;1.00;;;;;;;21.41;42.77;97557.66;5064423;28;20154;-68
2023/10/12 10:54:33;;;;;;;0.90;0.90;;;;;;;21.35;43.04;97561.38;5054285;28;20470;-70
2023/10/12 10:57:14;;;;;;;1.00;1.00;;;;;;;21.45;43.06;97586.56;5065010;28;20501;-68
2023/10/12 10:59:44;;;;;;;0.90;0.90;;;;;;;21.67;43.24;97536.25;5064198;28;20064;-65
2023/10/12 11:02:14;;;;;;;0.82;0.82;;;;;;;21.99;42.01;97548.53;5066024;28;20064;-62
2023/10/12 11:04:44;;;;;;;1.00;1.00;;;;;;;20.24;41.76;97270.00;5042886;28;20400;-66
2023/10/12 11:07:13;;;;;;;1.00;1.00;;;;;;;21.83;42.06;97551.25;5027819;28;20145;-66
2023/10/12 11:12:31;;;;;;;1.00;1.00;;;;;;;21.47;41.65;97386.78;5049660;28;20058;-71
2023/10/12 11:15:19;;;;;;;1.10;1.10;;;;;;;22.68;40.54;97510.78;5045282;28;20451;-65
2023/10/12 11:18:00;;;;;;;1.00;1.00;;;;;;;22.39;40.65;97513.41;5049484;28;20080;-64
2023/10/12 11:20:40;;;;;;;0.90;0.90;;;;;;;21.85;41.66;97537.53;5048227;28;20052;-61
2023/10/12 11:23:11;;;;;;;1.10;1.10;;;;;;;22.54;40.88;97524.44;5064468;28;20474;-64
2023/10/12 11:25:41;;;;;;;1.10;1.10;;;;;;;22.54;39.98;97490.53;5047610;28;20044;-72
2023/10/12 11:28:26;;;;;;;1.10;1.10;;;;;;;22.66;39.60;97441.81;5051009;28;20519;-65
2023/10/12 11:31:01;;;;;;;1.00;1.00;;;;;;;22.91;40.21;97495.69;5039962;28;20433;-68
2023/10/12 11:33:29;;;;;;;1.00;1.00;;;;;;;23.29;39.66;97522.22;5033761;28;20129;-65
2023/10/12 11:36:04;;;;;;;1.10;1.10;;;;;;;23.32;39.53;97479.72;5043326;28;20110;-61
2023/10/12 11:38:31;;;;;;;1.20;1.20;;;;;;;22.97;39.11;97404.31;5058293;28;20048;-66
2023/10/12 11:41:11;;;;;;;1.20;1.20;;;;;;;22.04;38.17;97251.75;5053111;28;20586;-69
2023/10/12 11:43:49;;;;;;;1.00;1.00;;;;;;;23.18;38.62;97448.97;5045135;28;20817;-65
2023/10/12 11:46:16;;;;;;;1.05;1.05;;;;;;;23.83;38.13;97495.72;5064361;28;20434;-65
2023/10/12 11:48:43;;;;;;;1.02;1.02;;;;;;;23.07;38.57;97385.47;5062046;28;20135;-72
2023/10/12 11:51:11;;;;;;;1.10;1.10;;;;;;;23.43;39.60;97493.59;5065189;28;21928;-65
2023/10/12 11:53:39;;;;;;;1.17;1.17;;;;;;;22.68;39.27;97397.00;5044748;28;20525;-66
2023/10/12 11:56:13;;;;;;;1.10;1.10;;;;;;;23.55;39.35;97487.22;5063248;28;20110;-66
2023/10/12 11:58:50;;;;;;;1.00;1.00;;;;;;;23.23;39.30;97485.19;5060657;28;20062;-62
2023/10/12 12:01:18;;;;;;;1.00;1.00;;;;;;;23.39;38.81;97488.03;5062626;28;20055;-66
2023/10/12 12:03:45;;;;;;;1.08;1.08;;;;;;;22.84;39.09;97439.38;5060064;28;20049;-66
2023/10/12 12:06:18;;;;;;;1.10;1.10;;;;;;;23.19;38.80;97461.09;5063410;28;20049;-70
2023/10/12 12:08:47;;;;;;;1.15;1.15;;;;;;;23.40;38.34;97440.75;5056517;28;20060;-69
2023/10/12 12:11:19;;;;;;;1.02;1.02;;;;;;;23.65;38.50;97466.31;5056832;28;20813;-62
2023/10/12 12:13:52;;;;;;;1.17;1.17;;;;;;;23.27;38.40;97422.91;5062162;28;20728;-64
2023/10/12 12:16:22;;;;;;;1.08;1.08;;;;;;;23.17;39.25;97461.53;5060669;28;20407;-63
2023/10/12 12:18:52;;;;;;;1.10;1.10;;;;;;;23.58;38.57;97466.53;5058095;28;20921;-62
2023/10/12 12:21:29;;;;;;;1.13;1.13;;;;;;;23.75;38.47;97453.91;5062182;28;20044;-60
2023/10/12 12:27:02;;;;;;;1.20;1.20;;;;;;;23.37;37.74;97382.25;4992244;28;20149;-66
2023/10/12 12:29:28;;;;;;;1.10;1.10;;;;;;;23.94;37.57;97450.13;5024730;28;20060;-68
2023/10/12 12:32:18;;;;;;;1.17;1.17;;;;;;;23.59;38.01;97408.69;5045687;28;20052;-61
2023/10/12 12:34:47;;;;;;;1.20;1.20;;;;;;;23.17;38.15;97367.44;5044225;28;20110;-66
2023/10/12 12:37:17;;;;;;;1.00;1.00;;;;;;;23.56;38.30;97440.72;4878780;28;5001631;-70
2023/10/12 12:39:53;;;;;;;1.10;1.10;;;;;;;23.51;38.09;97412.97;5045680;28;20258;-70
2023/10/12 12:42:20;;;;;;;0.98;0.98;;;;;;;23.85;38.38;97435.84;5080139;28;20059;-74
2023/10/12 12:44:47;;;;;;;1.00;1.00;;;;;;;23.57;38.03;97399.84;5082663;28;20051;-63
2023/10/12 12:47:16;;;;;;;1.10;1.10;;;;;;;23.13;38.49;97344.13;5082659;28;20536;-60
2023/10/12 12:49:43;;;;;;;1.00;1.00;;;;;;;23.37;38.19;97427.50;5082474;28;20124;-66
2023/10/12 12:52:11;;;;;;;1.00;1.00;;;;;;;23.04;38.64;97397.69;5076569;28;20511;-62
2023/10/12 12:54:38;;;;;;;1.08;1.08;;;;;;;23.17;38.83;97429.63;5066867;28;20063;-61
2023/10/12 12:57:04;;;;;;;0.90;0.90;;;;;;;23.02;38.52;97406.59;5056332;28;20055;-64
2023/10/12 12:59:31;;;;;;;1.00;1.00;;;;;;;23.04;38.37;97343.97;5077278;28;20056;-69
2023/10/12 13:01:58;;;;;;;1.10;1.10;;;;;;;23.19;38.48;97381.94;5064839;28;20047;-63
2023/10/12 13:04:26;;;;;;;1.00;1.00;;;;;;;23.21;38.18;97368.13;5075401;28;20775;-59
2023/10/12 13:06:55;;;;;;;1.05;1.05;;;;;;;22.93;38.70;97405.63;5083677;28;20059;-61
2023/10/12 13:09:33;;;;;;;1.02;1.02;;;;;;;22.39;39.08;97298.84;5061277;28;20062;-67
2023/10/12 13:12:01;;;;;;;1.00;1.00;;;;;;;23.28;38.65;97399.06;5045588;28;20592;-64
2023/10/12 13:14:28;;;;;;;1.10;1.10;;;;;;;23.40;38.44;97381.34;5079315;28;20044;-72
2023/10/12 13:16:56;;;;;;;1.10;1.10;;;;;;;23.37;38.84;97396.41;5068231;28;20135;-63
2023/10/12 13:19:24;;;;;;;1.00;1.00;;;;;;;23.44;38.11;97382.06;5081930;28;20051;-62
2023/10/12 13:21:52;;;;;;;1.10;1.10;;;;;;;22.90;37.83;97290.69;5081335;28;20127;-67
2023/10/12 13:24:18;;;;;;;1.10;1.10;;;;;;;23.86;37.75;97398.59;5069918;28;20141;-62
2023/10/12 13:26:46;;;;;;;1.10;1.10;;;;;;;23.80;37.47;97399.59;5075080;28;20056;-65
2023/10/12 13:29:13;;;;;;;1.08;1.08;;;;;;;23.84;37.85;97388.97;5076991;28;20424;-69
2023/10/12 13:31:40;;;;;;;1.00;1.00;;;;;;;23.95;37.44;97366.78;5061945;28;20513;-61
2023/10/12 13:34:10;;;;;;;1.20;1.20;;;;;;;23.97;37.69;97391.84;5081056;28;20056;-69
2023/10/12 13:36:39;;;;;;;1.10;1.10;;;;;;;23.56;37.98;97375.66;5064368;28;20067;-64
2023/10/12 13:39:10;;;;;;;1.00;1.00;;;;;;;23.06;38.36;97350.75;5082412;28;20056;-70
2023/10/12 13:41:37;;;;;;;1.05;1.05;;;;;;;22.91;38.39;97324.13;5053191;28;20143;-60
2023/10/12 13:44:05;;;;;;;0.90;0.90;;;;;;;23.08;38.39;97330.56;5046533;28;20132;-61
2023/10/12 13:46:34;;;;;;;1.10;1.10;;;;;;;22.27;38.62;97233.84;5049694;28;20442;-68
2023/10/12 13:49:06;;;;;;;1.00;1.00;;;;;;;23.44;38.45;97376.41;5083290;28;20056;-61
2023/10/12 13:51:33;;;;;;;0.90;0.90;;;;;;;22.51;39.05;97310.66;5077074;28;20105;-69
2023/10/12 13:54:03;;;;;;;1.00;1.00;;;;;;;22.36;39.22;97302.56;5079449;28;20494;-69
2023/10/12 13:56:29;;;;;;;1.00;1.00;;;;;;;22.65;39.45;97364.00;5065551;28;20514;-64
2023/10/12 13:58:59;;;;;;;1.00;1.00;;;;;;;21.66;39.67;97219.59;5070557;28;20135;-62
2023/10/12 14:01:26;;;;;;;1.15;1.15;;;;;;;;;;5044750;28;20131;-62
2023/10/12 14:03:57;;;;;;;1.00;1.00;;;;;;;22.75;39.76;97362.91;5073495;28;20514;-64
2023/10/12 14:06:24;;;;;;;1.00;1.00;;;;;;;22.86;39.56;97357.81;5062784;28;20060;-72
2023/10/12 14:08:52;;;;;;;1.15;1.15;;;;;;;22.83;39.45;97353.00;5063656;28;20060;-62
2023/10/12 14:11:19;;;;;;;1.00;1.00;;;;;;;22.35;40.08;97329.19;5070606;28;20073;-60
2023/10/12 14:13:47;;;;;;;1.00;1.00;;;;;;;22.71;40.06;97348.09;5083902;28;20143;-63
2023/10/12 14:16:14;;;;;;;0.93;0.93;;;;;;;22.75;40.12;97340.31;5071755;28;20070;-62
2023/10/12 14:18:42;;;;;;;1.00;1.00;;;;;;;22.78;39.65;97350.75;5058729;28;20048;-62
2023/10/12 14:21:10;;;;;;;1.10;1.10;;;;;;;22.72;39.67;97349.66;5087408;28;20131;-61
2023/10/12 14:23:43;;;;;;;1.10;1.10;;;;;;;22.47;40.27;97333.34;5087659;28;20139;-62
2023/10/12 14:26:17;;;;;;;0.95;0.95;;;;;;;22.23;40.18;97287.56;5069141;28;20048;-61
2023/10/12 14:28:54;;;;;;;1.00;1.00;;;;;;;22.59;40.04;97346.00;5069086;28;20059;-61
2023/10/12 14:31:22;;;;;;;1.10;1.10;;;;;;;22.39;40.33;97318.63;5086904;28;20510;-62
2023/10/12 14:33:51;;;;;;;0.90;0.90;;;;;;;22.38;40.90;97342.41;5068972;28;20055;-62
2023/10/12 14:36:19;;;;;;;0.90;0.90;;;;;;;22.02;41.08;97293.72;5068537;28;20048;-63
2023/10/12 14:38:46;;;;;;;1.10;1.10;;;;;;;22.33;41.08;97345.78;5068907;28;20066;-62
2023/10/12 14:41:16;;;;;;;1.00;1.00;;;;;;;21.84;41.01;97284.91;5086829;28;20055;-61
2023/10/12 14:43:47;;;;;;;1.00;1.00;;;;;;;22.32;41.10;97344.19;5086827;28;20131;-62
2023/10/12 14:46:18;;;;;;;0.93;0.93;;;;;;;22.16;41.25;97344.16;5086555;28;20126;-62
2023/10/12 14:48:49;;;;;;;1.00;1.00;;;;;;;22.06;41.70;97339.59;5086725;28;20059;-61
2023/10/12 14:51:17;;;;;;;1.10;1.10;;;;;;;22.02;41.67;97333.22;5068723;28;20056;-63
2023/10/12 14:53:44;;;;;;;1.00;1.00;;;;;;;22.18;41.71;97350.19;5087193;28;20052;-62
2023/10/12 14:56:14;;;;;;;1.00;1.00;;;;;;;22.12;41.88;97342.66;5086730;28;20495;-63
2023/10/12 14:58:41;;;;;;;0.90;0.90;;;;;;;22.24;41.48;97344.81;5068484;28;20059;-63
2023/10/12 15:01:13;;;;;;;1.00;1.00;;;;;;;22.18;41.39;97358.66;5086464;28;20043;-62
2023/10/12 15:03:41;;;;;;;1.00;1.00;;;;;;;21.92;41.79;97306.06;5087167;28;20083;-61
2023/10/12 15:06:12;;;;;;;1.00;1.00;;;;;;;22.10;42.03;97351.56;5087064;28;20080;-62
2023/10/12 15:08:40;;;;;;;1.00;1.00;;;;;;;22.06;41.81;97350.88;5086001;28;20139;-63
2023/10/12 15:11:07;;;;;;;1.10;1.10;;;;;;;22.00;41.88;97352.59;5086176;28;20085;-62
2023/10/12 15:13:37;;;;;;;0.98;0.98;;;;;;;21.68;41.71;97301.75;5086544;28;20164;-63
2023/10/12 15:16:09;;;;;;;0.90;0.90;;;;;;;21.79;41.88;97352.28;5085916;28;20173;-62
2023/10/12 15:18:39;;;;;;;1.00;1.00;;;;;;;21.48;42.00;97319.94;5085740;28;20059;-63
2023/10/12 15:21:10;;;;;;;1.00;1.00;;;;;;;21.68;42.44;97357.34;5086120;28;20504;-63
2023/10/12 15:23:55;;;;;;;0.90;0.90;;;;;;;21.44;42.72;97358.66;5086421;28;20662;-61
2023/10/12 15:26:22;;;;;;;1.10;1.10;;;;;;;21.36;42.85;97358.00;5086318;28;20051;-62
2023/10/12 15:28:51;;;;;;;1.00;1.00;;;;;;;21.34;43.18;97366.09;5067894;28;20060;-62
2023/10/12 15:31:23;;;;;;;1.00;1.00;;;;;;;21.17;43.86;97361.63;5084704;28;20129;-62
2023/10/12 15:33:50;;;;;;;1.10;1.10;;;;;;;20.92;44.17;97350.00;5079525;28;20182;-62
2023/10/12 15:36:17;;;;;;;1.10;1.10;;;;;;;21.16;43.90;97370.50;5086289;28;20055;-62
2023/10/12 15:38:44;;;;;;;1.00;1.00;;;;;;;21.01;44.13;97374.81;5086082;28;20048;-64
2023/10/12 15:41:11;;;;;;;0.90;0.90;;;;;;;20.77;44.68;97388.09;5067626;28;20128;-63
2023/10/12 15:43:38;;;;;;;0.90;0.90;;;;;;;20.60;44.71;97350.56;5085550;28;20538;-62
2023/10/12 15:46:09;;;;;;;1.00;1.00;;;;;;;20.69;45.02;97392.25;5066982;28;20052;-62
2023/10/12 15:48:36;;;;;;;1.00;1.00;;;;;;;20.53;45.80;97394.94;5085966;28;20060;-64
2023/10/12 15:51:03;;;;;;;0.90;0.90;;;;;;;20.51;45.92;97395.38;5085771;28;20430;-62
2023/10/12 15:53:30;;;;;;;1.00;1.00;;;;;;;20.35;46.81;97400.06;5085555;28;20055;-62
2023/10/12 15:55:57;;;;;;;0.80;0.80;;;;;;;19.90;47.04;97356.50;5085634;28;20052;-62
2023/10/12 15:58:23;;;;;;;0.90;0.90;;;;;;;20.11;47.42;97406.81;5084588;28;20079;-62
2023/10/12 16:00:54;;;;;;;0.80;0.80;;;;;;;19.93;47.80;97389.41;5085335;28;20118;-63
2023/10/12 16:03:21;;;;;;;1.00;1.00;;;;;;;19.89;48.00;97408.34;5085847;28;20055;-63
2023/10/12 16:05:49;;;;;;;0.98;0.98;;;;;;;19.53;47.92;97355.41;5066980;28;20051;-63
2023/10/12 16:08:16;;;;;;;1.00;1.00;;;;;;;19.75;48.27;97412.13;5085159;28;20091;-63
2023/10/12 16:10:50;;;;;;;0.90;0.90;;;;;;;19.15;48.98;97348.22;5085122;28;20076;-63
2023/10/12 16:13:17;;;;;;;0.85;0.85;;;;;;;19.38;49.35;97424.22;5067478;28;20139;-63
2023/10/12 16:15:44;;;;;;;0.90;0.90;;;;;;;19.22;49.98;97423.19;5066855;28;20044;-62
2023/10/12 16:18:11;;;;;;;0.90;0.90;;;;;;;19.12;50.12;97429.72;5066837;28;20056;-63
2023/10/12 16:20:39;;;;;;;0.90;0.90;;;;;;;18.99;50.24;97425.81;5084952;28;20048;-62
2023/10/12 16:23:06;;;;;;;1.00;1.00;;;;;;;18.65;50.16;97400.47;5085264;28;20466;-62
2023/10/12 16:25:33;;;;;;;0.90;0.90;;;;;;;18.78;49.97;97438.06;5066977;28;20542;-63
2023/10/12 16:28:00;;;;;;;0.90;0.90;;;;;;;18.57;50.10;97435.44;5066805;28;20085;-62
2023/10/12 16:30:34;;;;;;;0.80;0.80;;;;;;;18.56;49.90;97436.63;5084502;28;20052;-64
2023/10/12 16:33:02;;;;;;;0.88;0.88;;;;;;;18.46;50.41;97437.53;5085084;28;20051;-63
2023/10/12 16:35:29;;;;;;;0.90;0.90;;;;;;;18.39;50.78;97437.56;5085304;28;20050;-63
2023/10/12 16:37:59;;;;;;;0.80;0.80;;;;;;;18.28;51.39;97439.63;5066770;28;20058;-64
2023/10/12 16:40:28;;;;;;;0.90;0.90;;;;;;;18.05;51.61;97425.38;5066945;28;20052;-63
2023/10/12 16:42:56;;;;;;;0.80;0.80;;;;;;;18.19;51.60;97450.50;5084681;28;20059;-62
2023/10/12 16:45:22;;;;;;;0.80;0.80;;;;;;;17.50;51.68;97362.78;5084184;28;20120;-63
2023/10/12 16:47:50;;;;;;;0.85;0.85;;;;;;;17.99;52.02;97457.81;5066454;28;20071;-63
2023/10/12 16:50:18;;;;;;;0.90;0.90;;;;;;;17.45;52.16;97402.47;5065932;28;20058;-64
2023/10/12 16:52:48;;;;;;;0.80;0.80;;;;;;;17.81;52.03;97445.91;5063906;28;20138;-63
2023/10/12 16:55:16;;;;;;;0.80;0.80;;;;;;;15.71;52.19;97140.34;5063690;28;20056;-62
2023/10/12 16:57:47;;;;;;;0.80;0.80;;;;;;;17.47;52.09;97414.03;5064055;28;20531;-64
2023/10/12 17:00:18;;;;;;;0.80;0.80;;;;;;;17.52;52.67;97447.22;5063887;28;20059;-62
2023/10/12 17:02:45;;;;;;;0.85;0.85;;;;;;;17.52;52.71;97450.84;5064161;28;20056;-63
2023/10/12 17:05:13;;;;;;;0.70;0.70;;;;;;;17.20;53.30;97416.50;5063891;28;20053;-62
2023/10/12 17:07:44;;;;;;;0.70;0.70;;;;;;;17.41;53.61;97454.84;5063958;28;20081;-62
2023/10/12 17:10:23;;;;;;;0.75;0.75;;;;;;;16.91;54.34;97414.19;5063770;28;20493;-63
2023/10/12 17:12:52;;;;;;;0.73;0.73;;;;;;;17.07;54.39;97445.34;5046249;28;20060;-63
2023/10/12 17:15:20;;;;;;;0.80;0.80;;;;;;;17.12;54.21;97458.94;5063874;28;20066;-62
2023/10/12 17:17:47;;;;;;;0.80;0.80;;;;;;;16.70;54.55;97417.00;5064381;28;20059;-62
2023/10/12 17:20:15;;;;;;;0.80;0.80;;;;;;;16.93;54.49;97467.75;5063346;28;20056;-63
2023/10/12 17:22:43;;;;;;;0.70;0.70;;;;;;;16.67;55.13;97443.78;5064016;28;20052;-64
2023/10/12 17:25:12;;;;;;;0.70;0.70;;;;;;;16.75;55.15;97478.16;5063587;28;20521;-61
2023/10/12 17:27:41;;;;;;;0.70;0.70;;;;;;;16.62;55.48;97469.34;5064018;28;20072;-62
2023/10/12 17:30:10;;;;;;;0.70;0.70;;;;;;;16.40;56.17;97468.53;5063159;28;20304;-62
2023/10/12 17:32:38;;;;;;;0.70;0.70;;;;;;;16.08;56.65;97433.31;5045744;28;20083;-62
2023/10/12 17:35:05;;;;;;;0.70;0.70;;;;;;;15.98;57.05;97434.91;5065115;28;20044;-63
2023/10/12 17:37:35;;;;;;;0.70;0.70;;;;;;;16.01;57.57;97487.19;5083932;28;20502;-63
2023/10/12 17:40:02;;;;;;;0.70;0.70;;;;;;;16.06;57.81;97481.22;5083420;28;20055;-63
2023/10/12 17:42:30;;;;;;;0.70;0.70;;;;;;;15.94;57.91;97478.81;5083734;28;20083;-63
2023/10/12 17:45:01;;;;;;;0.70;0.70;;;;;;;15.48;58.30;97421.97;5083847;28;20063;-66
2023/10/12 17:47:28;;;;;;;0.70;0.70;;;;;;;15.84;58.77;97479.56;5065535;28;20060;-64
2023/10/12 17:49:55;;;;;;;0.70;0.70;;;;;;;15.67;59.24;97474.72;5083452;28;20101;-64
2023/10/12 17:52:23;;;;;;;0.70;0.70;;;;;;;15.48;59.62;97483.41;5065663;28;20099;-65
2023/10/12 17:54:50;;;;;;;0.68;0.68;;;;;;;15.38;60.33;97484.16;5083594;28;20167;-63
2023/10/12 17:57:18;;;;;;;0.70;0.70;;;;;;;14.83;60.51;97408.06;5083555;28;20109;-63
2023/10/12 17:59:46;;;;;;;0.70;0.70;;;;;;;15.05;60.80;97462.00;5084632;28;20056;-62
2023/10/12 18:02:14;;;;;;;0.70;0.70;;;;;;;15.25;60.81;97490.44;5083193;28;20407;-64
2023/10/12 18:04:45;;;;;;;0.60;0.60;;;;;;;15.18;61.21;97485.59;5083513;28;20132;-64
2023/10/12 18:07:12;;;;;;;0.60;0.60;;;;;;;14.89;62.52;97479.03;5065512;28;20063;-63
2023/10/12 18:09:43;;;;;;;0.70;0.70;;;;;;;14.90;62.50;97488.22;5083434;28;20263;-63
2023/10/12 18:12:10;;;;;;;0.60;0.60;;;;;;;14.77;63.25;97495.28;5065461;28;20055;-62
2023/10/12 18:14:38;;;;;;;0.70;0.70;;;;;;;14.80;63.13;97497.28;5065595;28;20059;-62
2023/10/12 18:17:05;;;;;;;0.68;0.68;;;;;;;14.79;62.94;97495.69;5065153;28;20494;-61
2023/10/12 18:19:33;;;;;;;0.60;0.60;;;;;;;14.80;63.01;97494.50;5083339;28;20427;-62
2023/10/12 18:22:01;;;;;;;0.70;0.70;;;;;;;14.66;63.08;97497.19;5083457;28;20052;-61
2023/10/12 18:24:29;;;;;;;0.80;0.80;;;;;;;14.56;63.11;97503.47;5065361;28;20044;-62
2023/10/12 18:26:58;;;;;;;0.60;0.60;;;;;;;14.26;64.28;97499.97;5083151;28;20514;-63
2023/10/12 18:29:24;;;;;;;0.60;0.60;;;;;;;14.22;64.53;97501.91;5083455;28;20044;-62
2023/10/12 18:31:52;;;;;;;0.60;0.60;;;;;;;13.89;64.91;97465.75;5083238;28;20052;-63
2023/10/12 18:34:19;;;;;;;0.60;0.60;;;;;;;13.53;65.22;97408.88;5083279;28;20044;-64
2023/10/12 18:36:47;;;;;;;0.60;0.60;;;;;;;14.02;65.64;97512.44;5065165;28;20124;-63
2023/10/12 18:39:31;;;;;;;0.60;0.60;;;;;;;13.67;66.28;97461.94;5084031;28;20488;-63
2023/10/12 18:41:58;;;;;;;0.60;0.60;;;;;;;13.77;66.28;97464.03;5065500;28;20062;-63
2023/10/12 18:44:27;;;;;;;0.70;0.70;;;;;;;13.83;66.90;97503.47;5083603;28;20515;-63
2023/10/12 18:46:54;;;;;;;0.60;0.60;;;;;;;13.59;67.04;97476.94;5060757;28;20064;-62
2023/10/12 18:49:21;;;;;;;0.60;0.60;;;;;;;13.89;67.04;97529.81;5062503;28;20052;-62